createdAt,value
2022-10-20T00:01:14.201Z,46.05
2022-10-20T00:03:41.702Z,50.55
2022-10-20T00:06:21.776Z,55.13
2022-10-20T00:08:49.045Z,48.75
2022-10-20T00:11:17.514Z,47.45
2022-10-20T00:13:45.648Z,50.78
2022-10-20T00:16:12.907Z,53.45
2022-10-20T00:18:40.280Z,51.05
2022-10-20T00:21:08.915Z,53.58
2022-10-20T00:23:36.102Z,63.08
2022-10-20T00:26:07.980Z,55.00
2022-10-20T00:28:35.305Z,58.58
2022-10-20T00:31:03.305Z,65.63
2022-10-20T00:33:30.499Z,59.47
2022-10-20T00:36:01.758Z,66.90
2022-10-20T00:38:28.966Z,62.15
2022-10-20T00:40:56.230Z,63.47
2022-10-20T00:43:43.272Z,67.32
2022-10-20T00:46:12.169Z,74.57
2022-10-20T00:48:39.436Z,79.18
2022-10-20T00:51:06.614Z,71.07
2022-10-20T00:53:34.389Z,75.93
2022-10-20T00:56:01.583Z,72.05
2022-10-20T00:58:28.710Z,76.22
2022-10-20T01:00:57.714Z,68.38
2022-10-20T01:03:48.590Z,69.00
2022-10-20T01:08:52.955Z,74.07
2022-10-20T01:11:38.550Z,70.57
2022-10-20T01:14:32.917Z,65.30
2022-10-20T01:17:07.419Z,63.03
2022-10-20T01:19:58.795Z,65.00
2022-10-20T01:22:37.876Z,64.82
2022-10-20T01:25:38.967Z,63.72
2022-10-20T01:28:39.280Z,61.65
2022-10-20T01:31:22.652Z,58.95
2022-10-20T01:34:05.492Z,66.25
2022-10-20T01:36:36.033Z,59.03
2022-10-20T01:39:07.536Z,63.53
2022-10-20T01:41:39.084Z,64.40
2022-10-20T01:44:09.066Z,59.10
2022-10-20T01:46:36.880Z,62.72
2022-10-20T01:49:04.230Z,64.57
2022-10-20T01:51:32.313Z,69.90
2022-10-20T01:53:59.590Z,59.60
2022-10-20T01:57:10.101Z,63.38
2022-10-20T01:59:41.507Z,60.50
2022-10-20T02:02:08.631Z,75.03
2022-10-20T02:04:53.618Z,65.35
2022-10-20T02:07:26.478Z,61.63
2022-10-20T02:12:28.117Z,69.68
2022-10-20T02:14:55.263Z,67.18
2022-10-20T02:17:22.485Z,70.50
2022-10-20T02:19:51.126Z,68.50
2022-10-20T02:22:18.317Z,68.00
2022-10-20T02:24:45.670Z,66.25
2022-10-20T02:27:17.428Z,65.72
2022-10-20T02:29:49.822Z,70.40
2022-10-20T02:32:17.129Z,67.18
2022-10-20T02:34:44.278Z,64.65
2022-10-20T02:37:11.515Z,74.00
2022-10-20T02:39:38.676Z,75.68
2022-10-20T02:42:05.862Z,72.93
2022-10-20T02:44:33.115Z,68.50
2022-10-20T02:47:00.434Z,76.63
2022-10-20T02:49:27.829Z,64.22
2022-10-20T02:51:55.067Z,60.90
2022-10-20T02:54:22.527Z,64.47
2022-10-20T02:56:49.642Z,63.03
2022-10-20T02:59:17.107Z,69.43
2022-10-20T03:01:44.497Z,64.75
2022-10-20T03:04:12.102Z,66.07
2022-10-20T03:06:39.879Z,70.57
2022-10-20T03:09:07.252Z,64.75
2022-10-20T03:11:34.394Z,72.07
2022-10-20T03:14:01.570Z,74.40
2022-10-20T03:16:28.701Z,70.80
2022-10-20T03:18:59.958Z,67.32
2022-10-20T03:21:30.610Z,62.45
2022-10-20T03:23:57.778Z,65.30
2022-10-20T03:26:24.896Z,66.70
2022-10-20T03:28:52.018Z,64.88
2022-10-20T03:31:19.254Z,63.83
2022-10-20T03:33:46.395Z,67.75
2022-10-20T03:36:13.550Z,65.55
2022-10-20T03:38:42.451Z,71.88
2022-10-20T03:41:10.084Z,67.28
2022-10-20T03:43:38.958Z,65.95
2022-10-20T03:46:08.154Z,68.32
2022-10-20T03:48:35.414Z,67.35
2022-10-20T03:51:02.830Z,64.70
2022-10-20T03:53:30.176Z,74.78
2022-10-20T03:55:57.367Z,71.82
2022-10-20T03:58:24.722Z,72.13
2022-10-20T04:00:51.844Z,70.68
2022-10-20T04:03:18.970Z,69.95
2022-10-20T04:05:46.125Z,68.05
2022-10-20T04:10:40.450Z,64.43
2022-10-20T04:13:09.280Z,71.07
2022-10-20T04:15:36.602Z,72.88
2022-10-20T04:18:03.760Z,68.15
2022-10-20T04:20:31.173Z,65.22
2022-10-20T04:22:58.311Z,66.97
2022-10-20T04:25:25.496Z,67.60
2022-10-20T04:27:52.814Z,69.90
2022-10-20T04:30:20.022Z,65.05
2022-10-20T04:32:47.216Z,69.30
2022-10-20T04:35:14.391Z,63.72
2022-10-20T04:37:41.566Z,64.97
2022-10-20T04:40:09.186Z,64.15
2022-10-20T04:42:36.309Z,63.10
2022-10-20T04:45:03.666Z,59.80
2022-10-20T04:47:34.676Z,73.40
2022-10-20T04:50:02.048Z,66.90
2022-10-20T04:52:29.846Z,68.65
2022-10-20T04:54:57.034Z,66.22
2022-10-20T04:57:24.318Z,61.80
2022-10-20T04:59:51.439Z,69.07
2022-10-20T05:02:18.586Z,64.15
2022-10-20T05:04:46.215Z,62.65
2022-10-20T05:07:13.340Z,73.40
2022-10-20T05:09:40.642Z,61.35
2022-10-20T05:12:08.088Z,68.68
2022-10-20T05:14:35.682Z,64.78
2022-10-20T05:17:05.297Z,68.15
2022-10-20T05:19:35.098Z,69.72
2022-10-20T05:22:03.129Z,65.68
2022-10-20T05:24:30.379Z,64.15
2022-10-20T05:26:57.751Z,63.58
2022-10-20T05:29:27.524Z,65.60
2022-10-20T05:31:54.648Z,66.43
2022-10-20T05:34:21.804Z,70.90
2022-10-20T05:36:48.943Z,69.30
2022-10-20T05:39:16.065Z,64.63
2022-10-20T05:41:43.200Z,71.72
2022-10-20T05:44:11.785Z,64.97
2022-10-20T05:46:41.349Z,63.75
2022-10-20T05:49:12.489Z,63.90
2022-10-20T05:51:39.646Z,62.17
2022-10-20T05:54:06.893Z,66.97
2022-10-20T05:56:34.240Z,61.30
2022-10-20T05:59:01.354Z,61.17
2022-10-20T06:01:39.213Z,62.20
2022-10-20T06:04:08.567Z,57.53
2022-10-20T06:06:36.173Z,62.58
2022-10-20T06:09:05.554Z,62.85
2022-10-20T06:11:37.049Z,57.45
2022-10-20T06:14:07.266Z,58.25
2022-10-20T06:16:34.539Z,67.80
2022-10-20T06:19:01.896Z,66.65
2022-10-20T06:21:30.531Z,67.03
2022-10-20T06:24:01.397Z,67.20
2022-10-20T06:26:47.500Z,60.83
2022-10-20T06:29:16.399Z,64.72
2022-10-20T06:31:47.368Z,70.85
2022-10-20T06:34:16.342Z,76.65
2022-10-20T06:36:44.018Z,63.67
2022-10-20T06:39:19.850Z,69.90
2022-10-20T06:41:50.135Z,68.82
2022-10-20T06:44:22.874Z,69.32
2022-10-20T06:46:52.242Z,70.35
2022-10-20T06:49:19.602Z,62.70
2022-10-20T06:51:46.816Z,57.60
2022-10-20T06:54:14.048Z,61.28
2022-10-20T06:56:41.262Z,74.97
2022-10-20T06:59:08.410Z,66.25
2022-10-20T07:01:36.669Z,61.55
2022-10-20T07:04:05.942Z,65.60
2022-10-20T07:06:40.827Z,59.50
2022-10-20T07:09:09.068Z,59.17
2022-10-20T07:11:36.611Z,64.57
2022-10-20T07:14:04.203Z,71.88
2022-10-20T07:16:33.346Z,66.63
2022-10-20T07:19:01.144Z,65.15
2022-10-20T07:21:32.430Z,62.13
2022-10-20T07:24:03.865Z,62.35
2022-10-20T07:26:32.533Z,64.03
2022-10-20T07:29:00.335Z,69.45
2022-10-20T07:31:46.569Z,62.00
2022-10-20T07:34:24.905Z,62.97
2022-10-20T07:36:53.968Z,68.20
2022-10-20T07:39:21.384Z,72.35
2022-10-20T07:41:48.707Z,64.38
2022-10-20T07:44:16.143Z,60.67
2022-10-20T07:46:43.590Z,64.82
2022-10-20T07:49:39.160Z,64.43
2022-10-20T07:51:57.825Z,53.80
2022-10-20T07:54:25.083Z,54.38
2022-10-20T07:56:52.325Z,50.70
2022-10-20T07:59:19.579Z,47.72
2022-10-20T08:01:47.017Z,47.70
2022-10-20T08:04:14.251Z,45.28
2022-10-20T08:06:41.458Z,50.75
2022-10-20T08:09:08.810Z,43.97
2022-10-20T08:11:36.240Z,49.75
2022-10-20T08:14:03.542Z,45.83
2022-10-20T08:16:30.836Z,48.13
2022-10-20T08:19:02.512Z,41.75
2022-10-20T08:21:29.874Z,40.60
2022-10-20T08:23:59.847Z,45.83
2022-10-20T08:26:27.384Z,42.42
2022-10-20T08:28:55.255Z,45.45
2022-10-20T08:31:23.146Z,43.83
2022-10-20T08:33:52.819Z,39.22
2022-10-20T08:36:20.732Z,32.75
2022-10-20T08:38:48.319Z,37.03
2022-10-20T08:41:23.268Z,46.28
2022-10-20T08:43:52.038Z,44.45
2022-10-20T08:46:40.063Z,37.78
2022-10-20T08:49:11.345Z,36.78
2022-10-20T08:51:38.626Z,35.15
2022-10-20T08:54:14.045Z,39.65
2022-10-20T08:56:41.404Z,35.45
2022-10-20T08:59:28.512Z,32.47
2022-10-20T09:01:57.042Z,30.25
2022-10-20T09:04:35.457Z,28.58
2022-10-20T09:07:05.748Z,30.08
2022-10-20T09:09:33.478Z,29.67
2022-10-20T09:12:05.812Z,33.33
2022-10-20T09:14:35.387Z,42.28
2022-10-20T09:17:02.841Z,31.73
2022-10-20T09:19:30.206Z,30.35
2022-10-20T09:21:59.433Z,28.45
2022-10-20T09:24:29.998Z,28.08
2022-10-20T09:26:59.822Z,30.35
2022-10-20T09:29:38.104Z,28.38
2022-10-20T09:32:44.502Z,26.92
2022-10-20T09:35:32.007Z,28.95
2022-10-20T09:38:14.338Z,29.98
2022-10-20T09:40:56.836Z,28.42
2022-10-20T09:43:24.335Z,31.77
2022-10-20T09:46:00.366Z,28.42
2022-10-20T09:48:29.398Z,27.77
2022-10-20T09:50:56.953Z,24.42
2022-10-20T09:53:27.225Z,27.75
2022-10-20T09:55:54.629Z,31.48
2022-10-20T09:58:24.437Z,26.52
2022-10-20T10:01:06.208Z,22.92
2022-10-20T10:03:45.041Z,25.88
2022-10-20T10:06:38.111Z,22.33
2022-10-20T10:09:37.725Z,24.55
2022-10-20T10:12:11.593Z,21.48
2022-10-20T10:14:48.311Z,24.10
2022-10-20T10:17:41.430Z,20.58
2022-10-20T10:20:11.644Z,25.83
2022-10-20T10:22:39.556Z,24.42
2022-10-20T10:25:07.519Z,24.20
2022-10-20T10:27:35.875Z,22.80
2022-10-20T10:30:27.908Z,24.10
2022-10-20T10:32:55.126Z,22.27
2022-10-20T10:35:34.355Z,20.75
2022-10-20T10:38:01.600Z,17.83
2022-10-20T10:40:53.664Z,19.25
2022-10-20T10:43:29.707Z,18.92
2022-10-20T10:46:06.880Z,23.55
2022-10-20T10:48:37.113Z,21.30
2022-10-20T10:51:16.706Z,17.00
2022-10-20T10:53:54.762Z,18.70
2022-10-20T10:56:37.057Z,20.77
2022-10-20T10:59:23.790Z,17.48
2022-10-20T11:01:57.112Z,16.73
2022-10-20T11:04:42.277Z,19.23
2022-10-20T11:07:30.597Z,19.15
2022-10-20T11:10:31.286Z,23.60
2022-10-20T11:13:35.089Z,15.60
2022-10-20T11:16:12.285Z,17.15
2022-10-20T11:18:42.603Z,15.80
2022-10-20T11:21:29.165Z,21.05
2022-10-20T11:24:14.929Z,17.13
2022-10-20T11:26:44.752Z,15.07
2022-10-20T11:29:30.017Z,15.02
2022-10-20T11:32:13.710Z,10.93
2022-10-20T11:34:56.631Z,12.07
2022-10-20T11:37:26.194Z,14.27
2022-10-20T11:40:07.635Z,16.42
2022-10-20T11:42:46.129Z,15.98
2022-10-20T11:45:28.565Z,15.52
2022-10-20T11:48:19.195Z,14.20
2022-10-20T11:53:43.158Z,12.00
2022-10-20T11:56:13.089Z,15.25
2022-10-20T11:59:07.657Z,15.88
2022-10-20T12:01:42.573Z,22.63
2022-10-20T12:04:21.318Z,13.27
2022-10-20T12:07:10.469Z,9.63
2022-10-20T12:10:31.111Z,11.82
2022-10-20T12:13:32.063Z,12.90
2022-10-20T12:15:59.229Z,16.40
2022-10-20T12:18:28.452Z,20.67
2022-10-20T12:20:59.765Z,17.85
2022-10-20T12:23:54.477Z,13.38
2022-10-20T12:26:32.872Z,11.43
2022-10-20T12:29:00.799Z,10.23
2022-10-20T12:32:06.644Z,13.63
2022-10-20T12:34:40.681Z,16.10
2022-10-20T12:37:08.741Z,10.18
2022-10-20T12:39:35.876Z,15.90
2022-10-20T12:42:05.217Z,14.57
2022-10-20T12:44:38.841Z,17.38
2022-10-20T12:47:07.147Z,13.95
2022-10-20T12:49:36.466Z,14.77
2022-10-20T12:52:04.646Z,14.15
2022-10-20T12:54:40.552Z,18.15
2022-10-20T12:57:36.836Z,15.13
2022-10-20T13:00:07.540Z,15.68
2022-10-20T13:02:57.124Z,12.93
2022-10-20T13:05:25.965Z,10.90
2022-10-20T13:07:53.111Z,10.38
2022-10-20T13:10:38.933Z,10.15
2022-10-20T13:13:06.154Z,14.40
2022-10-20T13:15:43.212Z,10.93
2022-10-20T13:18:13.398Z,10.75
2022-10-20T13:21:06.509Z,12.75
2022-10-20T13:23:47.882Z,11.48
2022-10-20T13:26:31.063Z,11.30
2022-10-20T13:29:01.263Z,11.32
2022-10-20T13:31:45.689Z,14.13
2022-10-20T13:34:12.883Z,10.85
2022-10-20T13:37:14.161Z,14.93
2022-10-20T13:39:44.762Z,11.45
2022-10-20T13:42:30.978Z,11.40
2022-10-20T13:45:04.211Z,15.35
2022-10-20T13:47:31.505Z,14.45
2022-10-20T13:49:59.526Z,16.60
2022-10-20T13:52:28.222Z,14.90
2022-10-20T13:54:55.564Z,15.35
2022-10-20T13:57:28.792Z,17.63
2022-10-20T13:59:57.605Z,20.13
2022-10-20T14:02:34.993Z,15.82
2022-10-20T14:05:12.858Z,22.60
2022-10-20T14:07:42.144Z,32.45
2022-10-20T14:10:33.561Z,18.73
2022-10-20T14:13:00.712Z,11.93
2022-10-20T14:15:32.997Z,11.00
2022-10-20T14:18:07.799Z,15.82
2022-10-20T14:20:41.604Z,16.05
2022-10-20T14:23:09.707Z,15.15
2022-10-20T14:25:36.850Z,13.98
2022-10-20T14:28:06.720Z,19.42
2022-10-20T14:30:38.746Z,18.38
2022-10-20T14:33:13.469Z,28.97
2022-10-20T14:35:46.087Z,23.27
2022-10-20T14:38:22.205Z,17.33
2022-10-20T14:40:54.130Z,16.02
2022-10-20T14:43:23.439Z,15.50
2022-10-20T14:45:55.238Z,18.13
2022-10-20T14:48:22.453Z,11.43
2022-10-20T14:50:49.604Z,10.60
2022-10-20T14:53:27.300Z,19.10
2022-10-20T14:55:55.315Z,14.93
2022-10-20T14:58:52.525Z,17.90
2022-10-20T15:01:31.879Z,41.78
2022-10-20T15:04:16.046Z,12.35
2022-10-20T15:06:43.877Z,16.27
2022-10-20T15:09:18.389Z,17.20
2022-10-20T15:11:45.546Z,17.63
2022-10-20T15:14:14.905Z,13.68
2022-10-20T15:16:44.110Z,14.75
2022-10-20T15:19:23.458Z,11.70
2022-10-20T15:22:00.101Z,15.63
2022-10-20T15:24:28.109Z,11.80
2022-10-20T15:26:55.901Z,12.75
2022-10-20T15:29:23.324Z,11.82
2022-10-20T15:31:50.448Z,19.20
2022-10-20T15:34:17.614Z,14.98
2022-10-20T15:36:47.555Z,23.58
2022-10-20T15:39:16.125Z,11.13
2022-10-20T15:41:43.364Z,11.80
2022-10-20T15:44:13.396Z,12.15
2022-10-20T15:46:41.577Z,16.25
2022-10-20T15:49:09.240Z,10.57
2022-10-20T15:51:36.744Z,14.10
2022-10-20T15:54:03.945Z,21.75
2022-10-20T15:56:31.179Z,17.20
2022-10-20T15:58:58.309Z,15.13
2022-10-20T16:01:25.599Z,15.65
2022-10-20T16:03:52.984Z,15.68
2022-10-20T16:06:20.134Z,15.25
2022-10-20T16:08:48.191Z,15.93
2022-10-20T16:11:15.939Z,11.95
2022-10-20T16:13:43.244Z,17.27
2022-10-20T16:16:18.474Z,11.25
2022-10-20T16:18:47.839Z,16.80
2022-10-20T16:21:15.302Z,14.95
2022-10-20T16:23:44.943Z,12.02
2022-10-20T16:26:13.020Z,15.82
2022-10-20T16:28:40.286Z,19.13
2022-10-20T16:31:11.934Z,15.27
2022-10-20T16:33:39.063Z,15.75
2022-10-20T16:36:10.353Z,15.40
2022-10-20T16:38:40.110Z,13.20
2022-10-20T16:41:11.089Z,13.07
2022-10-20T16:43:39.678Z,11.90
2022-10-20T16:46:07.291Z,12.23
2022-10-20T16:48:36.984Z,14.90
2022-10-20T16:51:06.608Z,13.60
2022-10-20T16:53:33.786Z,13.48
2022-10-20T16:56:00.919Z,15.63
2022-10-20T16:58:28.089Z,18.08
2022-10-20T17:01:03.969Z,15.63
2022-10-20T17:03:31.395Z,12.05
2022-10-20T17:06:00.636Z,12.98
2022-10-20T17:08:28.135Z,18.85
2022-10-20T17:10:57.104Z,12.32
2022-10-20T17:13:24.346Z,14.32
2022-10-20T17:15:51.557Z,16.63
2022-10-20T17:18:18.927Z,11.27
2022-10-20T17:20:46.198Z,16.33
2022-10-20T17:23:13.380Z,10.80
2022-10-20T17:25:40.575Z,13.88
2022-10-20T17:28:07.694Z,16.80
2022-10-20T17:30:34.856Z,13.43
2022-10-20T17:33:02.068Z,13.07
2022-10-20T17:35:29.363Z,15.68
2022-10-20T17:37:58.982Z,12.35
2022-10-20T17:40:29.369Z,12.05
2022-10-20T17:42:56.866Z,11.63
2022-10-20T17:45:24.051Z,16.25
2022-10-20T17:47:53.178Z,16.73
2022-10-20T17:50:20.333Z,13.95
2022-10-20T17:52:47.546Z,16.35
2022-10-20T17:55:14.843Z,15.25
2022-10-20T17:57:42.042Z,16.27
2022-10-20T18:00:16.490Z,16.42
2022-10-20T18:02:50.654Z,16.10
2022-10-20T18:05:18.357Z,16.08
2022-10-20T18:07:45.600Z,22.05
2022-10-20T18:10:12.843Z,17.88
2022-10-20T18:12:40.156Z,18.25
2022-10-20T18:15:07.699Z,17.00
2022-10-20T18:17:35.362Z,13.55
2022-10-20T18:20:02.828Z,17.52
2022-10-20T18:22:29.966Z,19.15
2022-10-20T18:24:57.134Z,11.50
2022-10-20T18:27:24.302Z,14.20
2022-10-20T18:29:51.413Z,12.13
2022-10-20T18:32:18.546Z,10.70
2022-10-20T18:34:46.823Z,13.27
2022-10-20T18:37:17.669Z,12.80
2022-10-20T18:39:45.674Z,10.52
2022-10-20T18:42:12.855Z,15.07
2022-10-20T18:44:40.028Z,15.50
2022-10-20T18:47:07.220Z,19.95
2022-10-20T18:49:34.503Z,16.00
2022-10-20T18:52:02.861Z,12.30
2022-10-20T18:54:30.075Z,13.25
2022-10-20T18:56:57.295Z,15.02
2022-10-20T18:59:24.501Z,17.10
2022-10-20T19:01:51.645Z,12.30
2022-10-20T19:04:18.816Z,10.95
2022-10-20T19:06:47.057Z,15.02
2022-10-20T19:09:18.897Z,13.98
2022-10-20T19:11:46.212Z,13.52
2022-10-20T19:14:13.647Z,14.90
2022-10-20T19:16:42.178Z,17.83
2022-10-20T19:19:09.343Z,14.85
2022-10-20T19:21:36.870Z,15.52
2022-10-20T19:24:09.125Z,13.68
2022-10-20T19:26:57.040Z,14.13
2022-10-20T19:29:34.285Z,19.23
2022-10-20T19:32:01.560Z,14.77
2022-10-20T19:34:31.275Z,12.68
2022-10-20T19:37:00.147Z,12.05
2022-10-20T19:39:32.760Z,19.13
2022-10-20T19:42:00.896Z,18.85
2022-10-20T19:44:28.396Z,13.98
2022-10-20T19:46:55.875Z,15.50
2022-10-20T19:49:23.714Z,12.15
2022-10-20T19:51:51.000Z,15.75
2022-10-20T19:54:18.350Z,14.55
2022-10-20T19:56:45.500Z,12.88
2022-10-20T19:59:12.650Z,16.33
2022-10-20T20:01:39.803Z,17.00
2022-10-20T20:04:07.437Z,17.08
2022-10-20T20:06:34.876Z,21.00
2022-10-20T20:09:03.643Z,17.23
2022-10-20T20:11:31.058Z,19.83
2022-10-20T20:14:07.675Z,16.48
2022-10-20T20:16:34.893Z,12.68
2022-10-20T20:19:02.257Z,17.20
2022-10-20T20:21:29.547Z,15.75
2022-10-20T20:24:01.151Z,12.90
2022-10-20T20:26:33.919Z,13.00
2022-10-20T20:29:01.115Z,16.05
2022-10-20T20:31:28.414Z,12.70
2022-10-20T20:33:56.733Z,17.67
2022-10-20T20:36:26.835Z,17.40
2022-10-20T20:38:58.242Z,16.15
2022-10-20T20:41:27.154Z,27.88
2022-10-20T20:43:54.510Z,40.40
2022-10-20T20:46:22.634Z,47.28
2022-10-20T20:48:50.067Z,42.42
2022-10-20T20:51:17.366Z,39.35
2022-10-20T20:53:44.520Z,39.55
2022-10-20T20:56:13.238Z,38.85
2022-10-20T20:58:41.793Z,41.28
2022-10-20T21:01:17.009Z,34.75
2022-10-20T21:03:44.320Z,29.25
2022-10-20T21:06:15.849Z,32.85
2022-10-20T21:08:44.969Z,31.90
2022-10-20T21:11:22.699Z,23.30
2022-10-20T21:13:50.537Z,25.52
2022-10-20T21:16:25.583Z,21.75
2022-10-20T21:18:55.442Z,22.98
2022-10-20T21:21:30.215Z,25.48
2022-10-20T21:23:57.709Z,19.45
2022-10-20T21:26:25.163Z,20.10
2022-10-20T21:28:53.008Z,21.73
2022-10-20T21:31:21.804Z,19.65
2022-10-20T21:33:59.406Z,17.17
2022-10-20T21:36:27.424Z,16.48
2022-10-20T21:38:54.650Z,17.55
2022-10-20T21:41:29.358Z,16.83
2022-10-20T21:43:57.819Z,15.25
2022-10-20T21:46:26.944Z,14.45
2022-10-20T21:48:55.688Z,15.48
2022-10-20T21:51:24.954Z,16.08
2022-10-20T21:54:02.175Z,16.50
2022-10-20T21:56:29.508Z,14.85
2022-10-20T21:58:56.656Z,21.20
2022-10-20T22:01:24.709Z,13.32
2022-10-20T22:03:52.857Z,19.25
2022-10-20T22:06:21.561Z,18.05
2022-10-20T22:08:51.567Z,15.43
2022-10-20T22:11:30.204Z,20.58
2022-10-20T22:13:57.555Z,18.33
2022-10-20T22:16:26.785Z,15.70
2022-10-20T22:19:05.664Z,12.95
2022-10-20T22:21:36.018Z,13.02
2022-10-20T22:24:03.690Z,13.75
2022-10-20T22:26:30.924Z,14.93
2022-10-20T22:28:59.782Z,20.48
2022-10-20T22:31:27.134Z,17.95
2022-10-20T22:33:55.452Z,16.08
2022-10-20T22:36:22.857Z,18.13
2022-10-20T22:38:50.006Z,15.23
2022-10-20T22:41:17.291Z,14.38
2022-10-20T22:43:44.488Z,15.75
2022-10-20T22:46:11.615Z,19.23
2022-10-20T22:48:38.806Z,18.88
2022-10-20T22:51:06.882Z,15.98
2022-10-20T22:53:34.477Z,15.90
2022-10-20T22:56:08.918Z,17.75
2022-10-20T22:58:36.374Z,21.27
2022-10-20T23:01:17.566Z,23.10
2022-10-20T23:03:45.041Z,29.75
2022-10-20T23:06:14.042Z,22.55
2022-10-20T23:08:42.970Z,20.17
2022-10-20T23:11:10.325Z,14.30
2022-10-20T23:13:37.528Z,17.65
2022-10-20T23:16:04.864Z,23.88
2022-10-20T23:18:32.056Z,17.83
2022-10-20T23:20:59.229Z,23.20
2022-10-20T23:23:26.384Z,21.27
2022-10-20T23:25:53.506Z,16.75
2022-10-20T23:28:20.865Z,17.83
2022-10-20T23:30:48.004Z,18.65
2022-10-20T23:33:15.277Z,16.38
2022-10-20T23:35:42.404Z,16.45
2022-10-20T23:38:09.802Z,15.90
2022-10-20T23:40:37.197Z,17.08
2022-10-20T23:43:04.525Z,17.95
2022-10-20T23:45:34.162Z,13.90
2022-10-20T23:48:04.199Z,22.70
2022-10-20T23:50:31.359Z,15.82
2022-10-20T23:52:58.556Z,15.23
2022-10-20T23:55:25.686Z,19.63
2022-10-20T23:57:52.867Z,19.80
